| time (UTC) | temp F | wind direction | speed knots | gust knots | rain 1hr in | rain 24hr in | rain mn in | humidity % | barometer mb |
| 20260502212815 | 63 | 225 | 5.2 | 8.7 | 0.00 | 0.00 | 0.00 | 34 | 1010.8 |
| 20260502211815 | 63 | 225 | 5.2 | 7.8 | 0.00 | 0.00 | 0.00 | 33 | 1010.8 |
| 20260502210815 | 63 | 248 | 7.0 | 11.3 | 0.00 | 0.00 | 0.00 | 33 | 1011.1 |
| 20260502205815 | 63 | 248 | 4.3 | 7.8 | 0.00 | 0.00 | 0.00 | 32 | 1011.2 |
| 20260502204815 | 63 | 203 | 7.8 | 10.4 | 0.00 | 0.00 | 0.00 | 34 | 1011.3 |
| 20260502203815 | 64 | 248 | 6.1 | 9.6 | 0.00 | 0.00 | 0.00 | 32 | 1011.7 |
| 20260502202815 | 65 | 180 | 9.6 | 12.2 | 0.00 | 0.00 | 0.00 | 32 | 1011.8 |
| 20260502201815 | 65 | 203 | 8.7 | 15.6 | 0.00 | 0.00 | 0.00 | 34 | 1012.1 |
| 20260502200815 | 63 | 180 | 6.1 | 9.6 | 0.00 | 0.00 | 0.00 | 34 | 1012.3 |
| 20260502195835 | 63 | 248 | 13.0 | 16.5 | 0.00 | 0.00 | 0.00 | 34 | 1012.6 |
| 20260502194815 | 64 | 180 | 8.7 | 13.0 | 0.00 | 0.00 | 0.00 | 34 | 1012.8 |
| 20260502193815 | 63 | 180 | 9.6 | 14.8 | 0.00 | 0.00 | 0.00 | 33 | 1013.0 |
| 20260502192835 | 61 | 225 | 6.1 | 8.7 | 0.00 | 0.00 | 0.00 | 33 | 1013.1 |
| 20260502191815 | 61 | 203 | 8.7 | 12.2 | 0.00 | 0.00 | 0.00 | 33 | 1013.3 |
| 20260502190815 | 62 | 248 | 7.8 | 13.0 | 0.00 | 0.00 | 0.00 | 34 | 1013.5 |
| 20260502185815 | 62 | 203 | 7.8 | 11.3 | 0.00 | 0.00 | 0.00 | 34 | 1013.7 |
| 20260502184815 | 60 | 203 | 8.7 | 14.8 | 0.00 | 0.00 | 0.00 | 35 | 1013.9 |
| 20260502183815 | 60 | 270 | 7.0 | 9.6 | 0.00 | 0.00 | 0.00 | 34 | 1014.0 |
| 20260502182837 | 60 | 225 | 6.1 | 8.7 | 0.00 | 0.00 | 0.00 | 32 | 1014.2 |
| 20260502181817 | 60 | 225 | 11.3 | 15.6 | 0.00 | 0.00 | 0.00 | 35 | 1014.3 |
| 20260502180817 | 60 | 203 | 8.7 | 12.2 | 0.00 | 0.00 | 0.00 | 34 | 1014.5 |
| 20260502163817 | 56 | 248 | 7.0 | 11.3 | 0.00 | 0.00 | 0.00 | 36 | 1016.0 |
| 20260502162816 | 56 | 203 | 7.0 | 13.9 | 0.00 | 0.00 | 0.00 | 34 | 1016.2 |
| 20260502161817 | 55 | 225 | 9.6 | 12.2 | 0.00 | 0.00 | 0.00 | 34 | 1016.4 |
| 20260502160817 | 56 | 225 | 7.8 | 10.4 | 0.00 | 0.00 | 0.00 | 37 | 1016.5 |
| 20260502151816 | 53 | 203 | 7.8 | 9.6 | 0.00 | 0.00 | 0.00 | 37 | 1017.4 |
| 20260502150836 | 53 | 248 | 8.7 | 11.3 | 0.00 | 0.00 | 0.00 | 39 | 1017.6 |
| 20260502122816 | 36 | 270 | 1.7 | 2.6 | 0.00 | 0.00 | 0.00 | 84 | 1018.3 |
| 20260502121816 | 34 | 270 | 0.9 | 1.7 | 0.00 | 0.00 | 0.00 | 86 | 1018.0 |
| 20260502120816 | 32 | 0.0 | 0.0 | 0.00 | 0.00 | 0.00 | 87 | 1017.9 | |
| 20260502115816 | 30 | 0.0 | 0.9 | 0.00 | 0.00 | 0.00 | 86 | 1017.9 | |
| 20260502114816 | 30 | 270 | 1.7 | 2.6 | 0.00 | 0.00 | 0.00 | 86 | 1017.9 |
| 20260502113816 | 29 | 270 | 0.9 | 1.7 | 0.00 | 0.00 | 0.00 | 86 | 1017.8 |
| 20260502112816 | 29 | 270 | 1.7 | 2.6 | 0.00 | 0.00 | 0.00 | 86 | 1017.9 |
| 20260502111816 | 29 | 315 | 0.9 | 1.7 | 0.00 | 0.00 | 0.00 | 86 | 1017.8 |
| 20260502110816 | 29 | 0.0 | 0.0 | 0.00 | 0.00 | 0.00 | 85 | 1017.7 | |
| 20260502105816 | 30 | 0.0 | 0.0 | 0.00 | 0.00 | 0.00 | 84 | 1017.8 | |
| 20260502104816 | 30 | 315 | 0.9 | 0.9 | 0.00 | 0.00 | 0.00 | 83 | 1017.7 |
| 20260502103816 | 30 | 0.0 | 0.0 | 0.00 | 0.00 | 0.00 | 81 | 1017.7 | |
| 20260502102816 | 30 | 315 | 0.9 | 0.9 | 0.00 | 0.00 | 0.00 | 81 | 1017.5 |
| 20260502101816 | 30 | 0.0 | 0.0 | 0.00 | 0.00 | 0.00 | 79 | 1017.6 | |
| 20260502100816 | 30 | 0.0 | 0.0 | 0.00 | 0.00 | 0.00 | 76 | 1017.6 | |
| 20260502090816 | 32 | 315 | 0.9 | 1.7 | 0.00 | 0.00 | 0.00 | 72 | 1017.7 |
| 20260502070816 | 33 | 293 | 0.9 | 1.7 | 0.00 | 0.00 | 0.00 | 72 | 1018.0 |
| 20260502065816 | 33 | 293 | 1.7 | 1.7 | 0.00 | 0.00 | 0.00 | 69 | 1018.0 |
| 20260502064816 | 32 | 293 | 0.9 | 1.7 | 0.00 | 0.00 | 0.00 | 73 | 1018.0 |
| 20260502063816 | 33 | 0.0 | 0.0 | 0.00 | 0.00 | 0.00 | 72 | 1018.0 | |
| 20260502062816 | 32 | 293 | 0.9 | 1.7 | 0.00 | 0.00 | 0.00 | 73 | 1017.9 |
| 20260502061816 | 33 | 0.0 | 0.0 | 0.00 | 0.00 | 0.00 | 73 | 1018.0 | |
| 20260502060815 | 33 | 0.0 | 0.0 | 0.00 | 0.00 | 0.00 | 74 | 1018.0 | |
| 20260502055816 | 33 | 0.0 | 0.0 | 0.00 | 0.00 | 0.00 | 72 | 1018.1 | |
| 20260502054816 | 33 | 0.0 | 0.0 | 0.00 | 0.00 | 0.00 | 73 | 1018.0 | |
| 20260502053815 | 33 | 0.0 | 0.0 | 0.00 | 0.00 | 0.00 | 74 | 1018.1 | |
| 20260502052815 | 33 | 0.0 | 0.0 | 0.00 | 0.00 | 0.00 | 74 | 1018.1 | |
| 20260502051815 | 34 | 0.0 | 0.0 | 0.00 | 0.00 | 0.00 | 76 | 1018.2 | |
| 20260502050815 | 34 | 0.0 | 0.0 | 0.00 | 0.00 | 0.00 | 74 | 1018.0 | |
| 20260502045816 | 35 | 0.0 | 0.0 | 0.00 | 0.00 | 0.00 | 70 | 1018.1 | |
| 20260502044816 | 35 | 0.0 | 0.0 | 0.00 | 0.00 | 0.00 | 68 | 1018.2 | |
| 20260502043836 | 36 | 0.0 | 0.0 | 0.00 | 0.00 | 0.00 | 64 | 1018.2 | |
| 20260502042816 | 37 | 0.0 | 0.0 | 0.00 | 0.00 | 0.00 | 70 | 1018.2 | |
| 20260502041816 | 37 | 0.0 | 0.0 | 0.00 | 0.00 | 0.00 | 63 | 1018.1 | |
| 20260502040816 | 37 | 0.0 | 0.0 | 0.00 | 0.00 | 0.00 | 67 | 1018.1 | |
| 20260502035816 | 37 | 0.0 | 0.0 | 0.00 | 0.00 | 0.00 | 66 | 1018.1 | |
| 20260502034815 | 38 | 0.0 | 0.0 | 0.00 | 0.00 | 0.00 | 62 | 1018.2 | |
| 20260502033815 | 38 | 0.0 | 0.0 | 0.00 | 0.00 | 0.00 | 62 | 1018.1 | |
| 20260502032916 | 39 | 0.0 | 0.0 | 0.00 | 0.00 | 0.00 | 58 | 1018.0 | |
| 20260502031816 | 40 | 0.0 | 0.0 | 0.00 | 0.00 | 0.00 | 58 | 1018.0 | |
| 20260502030815 | 41 | 0.0 | 0.0 | 0.00 | 0.00 | 0.00 | 51 | 1018.1 | |
| 20260502025816 | 42 | 0.0 | 0.0 | 0.00 | 0.00 | 0.00 | 51 | 1018.1 | |
| 20260502024815 | 43 | 0.0 | 0.0 | 0.00 | 0.00 | 0.00 | 43 | 1018.1 | |
| 20260502023816 | 43 | 0.0 | 0.0 | 0.00 | 0.00 | 0.00 | 41 | 1018.1 | |
| 20260502022815 | 44 | 0.0 | 0.0 | 0.00 | 0.00 | 0.00 | 44 | 1018.1 | |
| 20260502021815 | 45 | 0.0 | 0.0 | 0.00 | 0.00 | 0.00 | 44 | 1018.0 | |
| 20260502020815 | 46 | 0.0 | 0.0 | 0.00 | 0.00 | 0.00 | 37 | 1018.2 | |
| 20260502015815 | 47 | 0.0 | 0.0 | 0.00 | 0.00 | 0.00 | 35 | 1018.0 | |
| 20260502014815 | 47 | 0.0 | 0.0 | 0.00 | 0.00 | 0.00 | 35 | 1018.0 | |
| 20260502013815 | 48 | 0.0 | 0.9 | 0.00 | 0.00 | 0.00 | 36 | 1018.0 | |
| 20260502012815 | 48 | 0.0 | 0.0 | 0.00 | 0.00 | 0.00 | 31 | 1018.0 | |
| 20260502011815 | 49 | 315 | 0.9 | 1.7 | 0.00 | 0.00 | 0.00 | 32 | 1017.9 |
| 20260502010815 | 50 | 0.0 | 0.0 | 0.00 | 0.00 | 0.00 | 30 | 1017.9 | |
| 20260502005815 | 51 | 0.0 | 0.9 | 0.00 | 0.00 | 0.00 | 32 | 1017.8 | |
| 20260502004856 | 51 | 0.0 | 0.0 | 0.00 | 0.00 | 0.00 | 32 | 1017.7 | |
| 20260502003815 | 52 | 0.0 | 0.9 | 0.00 | 0.00 | 0.00 | 32 | 1017.7 | |
| 20260502002815 | 52 | 0.0 | 0.9 | 0.00 | 0.00 | 0.00 | 31 | 1017.8 | |
| 20260502001815 | 51 | 0.0 | 0.9 | 0.00 | 0.00 | 0.00 | 33 | 1017.7 | |
| 20260502000815 | 51 | 315 | 1.7 | 2.6 | 0.00 | 0.00 | 0.00 | 32 | 1017.6 |
| 20260501235815 | 52 | 315 | 1.7 | 2.6 | 0.00 | 0.00 | 0.00 | 31 | 1017.7 |
| 20260501234835 | 53 | 315 | 0.9 | 1.7 | 0.00 | 0.00 | 0.00 | 28 | 1017.8 |
| 20260501233816 | 54 | 0 | 1.7 | 3.5 | 0.00 | 0.00 | 0.00 | 29 | 1017.7 |
| 20260501232815 | 54 | 315 | 1.7 | 2.6 | 0.00 | 0.00 | 0.00 | 28 | 1017.7 |
| 20260501231835 | 55 | 0.0 | 0.9 | 0.00 | 0.00 | 0.00 | 30 | 1017.7 | |
| 20260501230815 | 54 | 338 | 4.3 | 7.0 | 0.00 | 0.00 | 0.00 | 27 | 1017.7 |
| 20260501225815 | 54 | 270 | 2.6 | 3.5 | 0.00 | 0.00 | 0.00 | 30 | 1017.8 |
| 20260501224815 | 54 | 315 | 3.5 | 4.3 | 0.00 | 0.00 | 0.00 | 27 | 1017.9 |
| 20260501223815 | 54 | 338 | 3.5 | 7.8 | 0.00 | 0.00 | 0.00 | 31 | 1017.9 |
| 20260501222815 | 54 | 0 | 3.5 | 7.8 | 0.00 | 0.00 | 0.00 | 29 | 1017.8 |
| 20260501221815 | 53 | 270 | 2.6 | 3.5 | 0.00 | 0.00 | 0.00 | 28 | 1017.9 |
| 20260501220815 | 52 | 0 | 1.7 | 3.5 | 0.00 | 0.00 | 0.00 | 31 | 1017.8 |
| 20260501215815 | 52 | 23 | 0.9 | 1.7 | 0.00 | 0.00 | 0.00 | 31 | 1017.9 |
| 20260501214815 | 53 | 315 | 0.9 | 2.6 | 0.00 | 0.00 | 0.00 | 27 | 1017.8 |
| 20260501213835 | 55 | 293 | 2.6 | 4.3 | 0.00 | 0.00 | 0.00 | 28 | 1017.9 |